Time;durP1;ratioP1;P1;durP2;ratioP2;P2;SDS_P1;SDS_P2;PMS_P1;PMS_P2;Temp;Humidity;BMP_temperature;BMP_pressure;BME280_temperature;BME280_humidity;BME280_pressure;Samples;Min_cycle;Max_cycle;Signal;HPM_P1;HPM_P2
2022/05/14 00:01:22;;;;;;;0.93;0.90;;;;;;;12.41;57.43;99299.47;5071382;28;43740;-78
2022/05/14 00:03:49;;;;;;;1.30;1.13;;;;;;;12.37;57.40;99302.41;5054262;28;41145;-79
2022/05/14 00:06:19;;;;;;;1.23;1.00;;;;;;;11.99;57.60;99241.09;5054652;28;41107;-78
2022/05/14 00:08:48;;;;;;;3.20;1.17;;;;;;;12.32;57.39;99293.91;5071044;28;42714;-79
2022/05/14 00:14:03;;;;;;;2.70;1.37;;;;;;;12.22;57.87;99298.94;5071085;28;43861;-79
2022/05/14 00:16:32;;;;;;;1.43;1.10;;;;;;;12.19;58.06;99296.47;5054458;28;40037;-79
2022/05/14 00:19:01;;;;;;;1.40;1.30;;;;;;;12.13;57.91;99294.16;5054238;28;40793;-79
2022/05/14 00:21:29;;;;;;;1.67;1.27;;;;;;;12.08;57.86;99290.97;5054226;28;41601;-79
2022/05/14 00:23:58;;;;;;;2.00;1.30;;;;;;;11.85;57.93;99258.72;5070840;28;43201;-79
2022/05/14 00:26:27;;;;;;;1.23;1.13;;;;;;;11.97;58.15;99280.16;5071176;28;38787;-78
2022/05/14 00:28:55;;;;;;;1.97;1.10;;;;;;;11.99;58.17;99287.06;5070873;28;41797;-79
2022/05/14 00:31:24;;;;;;;1.53;1.00;;;;;;;11.87;58.54;99278.03;5054004;28;44843;-79
2022/05/14 00:33:51;;;;;;;1.43;1.10;;;;;;;11.93;58.39;99297.22;5053716;28;42752;-79
2022/05/14 00:36:19;;;;;;;1.73;1.23;;;;;;;11.90;58.65;99286.78;5067016;28;40557;-79
2022/05/14 00:38:46;;;;;;;1.37;1.13;;;;;;;11.72;58.75;99262.19;5070888;28;41747;-79
2022/05/14 00:41:14;;;;;;;1.30;1.20;;;;;;;11.82;59.23;99273.97;5070810;28;42891;-79
2022/05/14 00:43:51;;;;;;;1.80;1.47;;;;;;;11.80;59.18;99282.03;5070202;28;41144;-79
2022/05/14 00:46:22;;;;;;;1.50;1.30;;;;;;;11.78;59.17;99281.28;5053991;28;39667;-79
2022/05/14 00:48:53;;;;;;;1.90;1.00;;;;;;;11.74;59.81;99277.06;5070180;28;40633;-79
2022/05/14 00:51:29;;;;;;;1.53;1.20;;;;;;;11.73;59.59;99279.81;5053932;28;44440;-79
2022/05/14 00:54:02;;;;;;;1.47;1.20;;;;;;;11.69;59.78;99281.78;5069873;28;42884;-78
2022/05/14 00:56:33;;;;;;;1.23;1.13;;;;;;;11.67;59.57;99285.47;5054194;28;38724;-79
2022/05/14 00:59:07;;;;;;;2.00;1.20;;;;;;;11.61;59.89;99281.41;5087099;28;40654;-79
2022/05/14 01:01:35;;;;;;;1.43;1.20;;;;;;;11.11;59.76;99204.88;5054115;28;43493;-80
2022/05/14 01:04:04;;;;;;;1.17;1.07;;;;;;;11.54;59.95;99285.34;5053554;28;41640;-79
2022/05/14 01:06:33;;;;;;;1.80;1.20;;;;;;;11.41;59.88;99263.16;5070824;28;39956;-79
2022/05/14 01:09:04;;;;;;;2.47;1.67;;;;;;;11.49;59.76;99277.69;5053493;28;41390;-79
2022/05/14 01:11:35;;;;;;;2.23;1.40;;;;;;;11.46;59.83;99277.03;5053940;28;45022;-78
2022/05/14 01:14:04;;;;;;;1.63;1.40;;;;;;;11.42;59.88;99278.13;5053151;28;41257;-79
2022/05/14 01:16:35;;;;;;;1.40;1.30;;;;;;;11.38;60.23;99279.25;5053862;28;40265;-78
2022/05/14 01:19:05;;;;;;;1.03;1.00;;;;;;;11.34;60.05;99278.59;5053448;28;42140;-78
2022/05/14 01:21:44;;;;;;;3.27;1.53;;;;;;;11.31;60.16;99278.78;5053294;28;43307;-78
2022/05/14 01:27:06;;;;;;;3.20;1.00;;;;;;;11.24;60.18;99277.44;5070669;28;39819;-79
2022/05/14 01:29:36;;;;;;;1.07;0.93;;;;;;;11.21;60.42;99271.44;5069994;28;42572;-79
2022/05/14 01:32:08;;;;;;;1.17;1.07;;;;;;;11.17;60.33;99273.41;5067295;28;43730;-79
2022/05/14 01:34:36;;;;;;;1.20;1.10;;;;;;;11.04;60.38;99270.63;5069868;28;42198;-79
2022/05/14 01:37:05;;;;;;;1.37;1.20;;;;;;;11.10;60.40;99291.50;5053707;28;38828;-79
2022/05/14 01:39:33;;;;;;;1.30;1.20;;;;;;;11.03;60.58;99276.88;5053063;28;41965;-78
2022/05/14 01:42:01;;;;;;;1.33;1.23;;;;;;;11.03;60.78;99279.50;5087177;28;42306;-78
2022/05/14 01:44:31;;;;;;;1.10;1.00;;;;;;;11.01;60.43;99280.53;5053198;28;41954;-79
2022/05/14 01:46:58;;;;;;;1.30;1.20;;;;;;;10.98;60.36;99283.38;5070597;28;39848;-79
2022/05/14 01:49:26;;;;;;;1.27;1.17;;;;;;;10.97;60.81;99289.63;5081589;28;42126;-78
2022/05/14 01:51:56;;;;;;;1.77;1.43;;;;;;;10.80;60.75;99264.06;5085557;28;42982;-79
2022/05/14 01:54:24;;;;;;;1.27;1.10;;;;;;;10.90;60.73;99278.50;5067717;28;43108;-78
2022/05/14 01:56:51;;;;;;;1.73;1.33;;;;;;;10.89;60.97;99282.09;5071852;28;40963;-79
2022/05/14 01:59:19;;;;;;;1.63;1.30;;;;;;;10.86;61.09;99279.66;5071054;28;40856;-78
2022/05/14 02:01:49;;;;;;;1.83;1.20;;;;;;;10.84;60.94;99281.53;5072441;28;42659;-79
2022/05/14 02:04:17;;;;;;;2.00;1.30;;;;;;;10.72;60.82;99259.22;5064143;28;42982;-78
2022/05/14 02:06:46;;;;;;;1.60;1.50;;;;;;;10.79;60.92;99275.63;5056479;28;39171;-79
2022/05/14 02:09:14;;;;;;;1.87;1.20;;;;;;;10.77;61.12;99277.50;5073234;28;41970;-78
2022/05/14 02:11:45;;;;;;;1.33;1.23;;;;;;;10.75;61.10;99284.69;5070494;28;42819;-78
2022/05/14 02:14:23;;;;;;;1.30;1.20;;;;;;;10.71;61.28;99283.16;5056615;28;41497;-79
2022/05/14 02:16:52;;;;;;;1.23;1.07;;;;;;;10.66;61.08;99275.44;5093455;28;39145;-78
2022/05/14 02:19:19;;;;;;;1.33;1.10;;;;;;;10.66;61.46;99274.59;5076380;28;40744;-78
2022/05/14 02:21:47;;;;;;;1.90;1.23;;;;;;;10.63;61.18;99272.16;5073953;28;42846;-79
2022/05/14 02:24:14;;;;;;;1.30;1.20;;;;;;;10.56;61.29;99268.09;5072513;28;43199;-79
2022/05/14 02:26:43;;;;;;;1.77;1.17;;;;;;;10.48;61.32;99267.69;5072825;28;40816;-79
2022/05/14 02:29:11;;;;;;;1.83;1.60;;;;;;;10.55;61.56;99287.59;5055690;28;42207;-78
2022/05/14 02:31:39;;;;;;;1.40;1.23;;;;;;;10.53;61.33;99289.47;5074238;28;42600;-79
2022/05/14 02:34:08;;;;;;;1.37;1.10;;;;;;;10.51;61.68;99288.72;5055716;28;40983;-79
2022/05/14 02:36:35;;;;;;;1.67;1.20;;;;;;;10.37;61.91;99269.16;5056266;28;40087;-78
2022/05/14 02:39:04;;;;;;;0.80;0.80;;;;;;;10.46;62.11;99293.41;5055515;28;41401;-78
2022/05/14 02:41:31;;;;;;;1.37;1.10;;;;;;;10.43;62.18;99289.97;5072493;28;41813;-78
2022/05/14 02:43:59;;;;;;;1.67;1.30;;;;;;;10.40;62.62;99289.28;5055504;28;42146;-79
2022/05/14 02:46:27;;;;;;;1.50;1.40;;;;;;;10.11;62.27;99245.00;5055780;28;38988;-79
2022/05/14 02:48:55;;;;;;;1.57;1.20;;;;;;;10.35;62.55;99291.34;5054916;28;42766;-78
2022/05/14 02:51:24;;;;;;;2.13;1.60;;;;;;;10.29;62.52;99287.22;5055825;28;41684;-78
2022/05/14 02:53:52;;;;;;;1.53;1.10;;;;;;;10.31;62.82;99293.28;5072157;28;42210;-78
2022/05/14 02:56:19;;;;;;;2.60;1.13;;;;;;;10.28;62.91;99285.50;5055473;28;40720;-79
2022/05/14 03:01:32;;;;;;;1.97;1.20;;;;;;;10.24;62.62;99288.44;5055656;28;42696;-78
2022/05/14 03:04:00;;;;;;;1.60;1.50;;;;;;;10.20;62.65;99293.03;5071985;28;43314;-79
2022/05/14 03:06:29;;;;;;;1.93;1.50;;;;;;;10.18;62.53;99294.91;5055582;28;38961;-78
2022/05/14 03:08:57;;;;;;;1.23;1.00;;;;;;;10.16;62.44;99298.53;5054756;28;40960;-79
2022/05/14 03:11:25;;;;;;;1.73;1.40;;;;;;;10.04;62.58;99289.44;5072229;28;42795;-79
2022/05/14 03:13:54;;;;;;;1.83;1.40;;;;;;;10.11;62.80;99293.50;5054803;28;42434;-78
2022/05/14 03:16:21;;;;;;;1.67;1.50;;;;;;;10.09;62.68;99295.38;5072383;28;40866;-78
2022/05/14 03:18:49;;;;;;;2.47;1.07;;;;;;;10.06;62.60;99292.88;5072122;28;41381;-78
2022/05/14 03:21:17;;;;;;;1.40;1.30;;;;;;;10.01;62.82;99289.63;5088845;28;43047;-78
2022/05/14 03:23:46;;;;;;;1.67;1.57;;;;;;;10.04;62.97;99297.38;5088755;28;43305;-78
2022/05/14 03:26:14;;;;;;;1.90;1.27;;;;;;;10.01;62.81;99295.75;5071999;28;39339;-78
2022/05/14 03:28:41;;;;;;;1.50;1.40;;;;;;;9.99;62.89;99296.78;5055038;28;40551;-78
2022/05/14 03:31:09;;;;;;;1.50;1.40;;;;;;;9.97;62.79;99291.59;5054848;28;41915;-78
2022/05/14 03:33:37;;;;;;;1.57;1.07;;;;;;;9.98;63.03;99297.72;5052579;28;41718;-78
2022/05/14 03:36:05;;;;;;;1.33;1.10;;;;;;;9.99;62.99;99302.09;5052392;28;39721;-78
2022/05/14 03:38:33;;;;;;;2.20;1.20;;;;;;;9.88;63.19;99276.19;5034831;28;41539;-79
2022/05/14 03:41:03;;;;;;;1.30;1.20;;;;;;;9.94;63.65;99275.00;5051411;28;43526;-78
2022/05/14 03:43:31;;;;;;;1.90;1.80;;;;;;;10.02;64.54;99280.72;5051254;28;42129;-79
2022/05/14 03:46:00;;;;;;;2.23;2.00;;;;;;;9.95;64.45;99276.72;5034689;28;39957;-79
2022/05/14 03:48:28;;;;;;;1.40;1.30;;;;;;;10.07;64.42;99294.59;5050444;28;42072;-78
2022/05/14 03:50:57;;;;;;;1.80;1.40;;;;;;;10.01;65.27;99293.09;5051102;28;43171;-78
2022/05/14 03:53:24;;;;;;;2.33;1.27;;;;;;;10.09;65.18;99303.31;5067895;28;41245;-79
2022/05/14 03:55:52;;;;;;;2.47;1.40;;;;;;;10.09;64.93;99308.59;5051462;28;40107;-78
2022/05/14 03:58:21;;;;;;;1.67;1.30;;;;;;;10.07;65.15;99307.81;5051009;28;42409;-78
2022/05/14 04:00:48;;;;;;;2.40;1.53;;;;;;;10.05;65.22;99312.34;5051283;28;41808;-78
2022/05/14 04:03:16;;;;;;;1.43;1.33;;;;;;;10.04;65.36;99316.75;5050839;28;42460;-79
2022/05/14 04:05:43;;;;;;;1.60;1.40;;;;;;;9.91;65.77;99294.53;5084768;28;39837;-78
2022/05/14 04:08:11;;;;;;;1.60;1.50;;;;;;;10.01;66.12;99318.75;5084883;28;42761;-78
2022/05/14 04:10:39;;;;;;;2.07;1.40;;;;;;;9.99;66.05;99316.16;5051348;28;41683;-78
2022/05/14 04:13:06;;;;;;;3.03;1.50;;;;;;;9.98;65.91;99321.53;5034587;28;41257;-78
2022/05/14 04:15:35;;;;;;;1.63;1.50;;;;;;;9.86;66.21;99298.38;5051160;28;39849;-78
2022/05/14 04:18:03;;;;;;;1.40;1.30;;;;;;;9.98;65.95;99316.25;5050625;28;40836;-78
2022/05/14 04:20:31;;;;;;;1.97;1.80;;;;;;;10.01;65.88;99321.38;5059133;28;41797;-78
2022/05/14 04:22:58;;;;;;;2.20;1.50;;;;;;;10.03;65.85;99316.84;5053676;28;42765;-78
2022/05/14 04:25:26;;;;;;;2.00;1.43;;;;;;;10.09;65.77;99322.69;5054482;28;38789;-78
2022/05/14 04:27:54;;;;;;;1.53;1.43;;;;;;;10.18;66.04;99317.81;5072132;28;41919;-78
2022/05/14 04:30:21;;;;;;;1.60;1.50;;;;;;;10.26;67.32;99313.84;5053900;28;41477;-78
2022/05/14 04:32:51;;;;;;;2.13;1.60;;;;;;;10.33;67.02;99325.84;5070794;28;42316;-78
2022/05/14 04:35:19;;;;;;;1.60;1.50;;;;;;;10.42;66.06;99327.13;5054130;28;40489;-78
2022/05/14 04:37:48;;;;;;;1.77;1.67;;;;;;;10.53;65.87;99324.75;5053482;28;40861;-78
2022/05/14 04:40:15;;;;;;;2.10;1.87;;;;;;;10.64;65.69;99330.31;5053790;28;41642;-78
2022/05/14 04:42:43;;;;;;;1.70;1.60;;;;;;;10.75;65.58;99332.38;5070655;28;42336;-78
2022/05/14 04:45:12;;;;;;;1.87;1.50;;;;;;;10.86;65.84;99331.78;5053546;28;39559;-78
2022/05/14 04:47:42;;;;;;;2.67;2.00;;;;;;;10.97;65.74;99332.88;5070120;28;41790;-78
2022/05/14 04:50:14;;;;;;;1.87;1.70;;;;;;;11.07;65.55;99327.91;5067529;28;43326;-78
2022/05/14 04:52:42;;;;;;;1.50;1.40;;;;;;;11.18;65.75;99329.94;5053708;28;42272;-78
2022/05/14 04:55:10;;;;;;;1.57;1.27;;;;;;;11.24;65.54;99324.31;5069926;28;40887;-78
2022/05/14 04:57:40;;;;;;;2.37;1.87;;;;;;;11.35;65.79;99332.50;5053481;28;40688;-78
2022/05/14 05:00:10;;;;;;;1.90;1.50;;;;;;;11.40;65.13;99330.41;5070772;28;42480;-78
2022/05/14 05:05:28;;;;;;;2.07;1.87;;;;;;;11.63;64.85;99324.59;5053884;28;41155;-78
2022/05/14 05:07:56;;;;;;;3.50;1.70;;;;;;;11.70;64.45;99339.22;5053617;28;41048;-77
2022/05/14 05:10:27;;;;;;;2.17;1.80;;;;;;;11.85;64.26;99341.00;5070467;28;43655;-77
2022/05/14 05:12:54;;;;;;;1.97;1.70;;;;;;;11.94;64.21;99336.06;5070441;28;43038;-77
2022/05/14 05:15:22;;;;;;;3.87;2.50;;;;;;;12.07;64.33;99337.03;5053456;28;40290;-78
2022/05/14 05:17:50;;;;;;;3.23;2.00;;;;;;;12.21;64.14;99342.38;5103991;28;42658;-78
2022/05/14 05:20:18;;;;;;;2.53;2.03;;;;;;;12.32;65.01;99342.56;5071498;28;43104;-77
2022/05/14 05:22:49;;;;;;;2.20;1.93;;;;;;;12.38;64.44;99336.84;5070029;28;43122;-77
2022/05/14 05:25:17;;;;;;;2.60;1.90;;;;;;;12.58;64.62;99344.44;5053743;28;38424;-77
2022/05/14 05:27:44;;;;;;;2.17;1.87;;;;;;;12.72;64.02;99350.69;5070139;28;41811;-78
2022/05/14 05:30:13;;;;;;;3.97;2.70;;;;;;;12.83;64.12;99353.53;5070964;28;43137;-78
2022/05/14 05:32:41;;;;;;;2.43;2.13;;;;;;;12.95;63.94;99353.59;5057271;28;41008;-77
2022/05/14 05:35:10;;;;;;;2.37;2.17;;;;;;;13.08;63.60;99358.97;5074717;28;40128;-78
2022/05/14 05:37:37;;;;;;;1.97;1.87;;;;;;;13.21;63.29;99359.06;5073050;28;43931;-78
2022/05/14 05:40:08;;;;;;;5.43;2.03;;;;;;;13.33;63.12;99358.25;5056662;28;43595;-77
2022/05/14 05:42:36;;;;;;;2.53;2.20;;;;;;;13.37;63.04;99353.56;5055805;28;43498;-77
2022/05/14 05:45:04;;;;;;;3.57;2.20;;;;;;;13.59;63.03;99367.19;5056322;28;40389;-77
2022/05/14 05:47:32;;;;;;;2.00;1.80;;;;;;;13.71;62.61;99363.69;5055688;28;40626;-78
2022/05/14 05:49:59;;;;;;;2.63;2.03;;;;;;;13.86;62.11;99365.31;5073697;28;42885;-78
2022/05/14 05:52:27;;;;;;;2.07;1.80;;;;;;;14.01;62.03;99371.41;5072963;28;43097;-78
2022/05/14 05:57:41;;;;;;;3.23;2.07;;;;;;;14.31;61.47;99365.78;5071515;28;41689;-78
2022/05/14 06:00:12;;;;;;;4.40;2.80;;;;;;;14.49;61.18;99372.50;5056248;28;41333;-78
2022/05/14 06:02:41;;;;;;;2.67;2.17;;;;;;;14.68;61.06;99378.25;5070118;28;42050;-78
2022/05/14 06:05:10;;;;;;;3.57;2.37;;;;;;;14.84;60.68;99382.47;5073306;28;40695;-77
2022/05/14 06:07:39;;;;;;;2.93;2.47;;;;;;;14.99;60.45;99390.25;5073881;28;42778;-78
2022/05/14 06:10:10;;;;;;;3.57;2.00;;;;;;;15.13;60.05;99388.38;5072804;28;42810;-78
2022/05/14 06:12:38;;;;;;;3.47;2.10;;;;;;;15.29;60.09;99392.50;5050143;28;41386;-77
2022/05/14 06:15:09;;;;;;;2.40;2.00;;;;;;;15.46;59.71;99384.09;5053400;28;40015;-78
2022/05/14 06:17:37;;;;;;;1.70;1.60;;;;;;;15.72;59.41;99386.66;5051571;28;41832;-76
2022/05/14 06:20:05;;;;;;;3.80;1.90;;;;;;;16.00;59.00;99391.63;5065636;28;43627;-78
2022/05/14 06:22:33;;;;;;;3.93;1.90;;;;;;;16.23;58.38;99397.88;5075854;28;42720;-78
2022/05/14 06:25:00;;;;;;;4.40;2.50;;;;;;;16.38;57.96;99388.69;5092160;28;41158;-79
2022/05/14 06:27:28;;;;;;;2.63;1.80;;;;;;;16.37;57.53;99378.97;5093928;28;42312;-78
2022/05/14 06:29:55;;;;;;;1.90;1.73;;;;;;;16.52;57.55;99395.63;5075859;28;42495;-78
2022/05/14 06:32:25;;;;;;;1.70;1.60;;;;;;;16.60;57.26;99392.34;5076616;28;42270;-78
2022/05/14 06:34:52;;;;;;;3.60;1.57;;;;;;;16.77;56.82;99398.09;5072648;28;40026;-78
2022/05/14 06:37:20;;;;;;;3.87;1.93;;;;;;;16.93;56.53;99402.25;5073894;28;41487;-78
2022/05/14 06:39:48;;;;;;;2.97;1.97;;;;;;;17.16;56.48;99409.28;5072304;28;43965;-78
2022/05/14 06:42:16;;;;;;;2.83;1.83;;;;;;;17.50;55.61;99408.22;5073428;28;42532;-78
2022/05/14 06:44:44;;;;;;;2.13;1.63;;;;;;;17.84;54.58;99417.03;5072107;28;39931;-78
2022/05/14 06:47:12;;;;;;;2.10;1.90;;;;;;;18.28;53.13;99413.28;5055526;28;40872;-78
2022/05/14 06:49:42;;;;;;;3.37;2.23;;;;;;;18.73;51.25;99439.81;5071914;28;43643;-78
2022/05/14 06:52:12;;;;;;;2.73;1.83;;;;;;;18.80;51.07;99437.44;5072558;28;42026;-78
2022/05/14 06:54:43;;;;;;;2.33;1.93;;;;;;;18.83;50.96;99432.69;5055330;28;38898;-78
2022/05/14 06:57:10;;;;;;;2.00;1.60;;;;;;;18.94;49.98;99440.63;5073556;28;42159;-78
2022/05/14 06:59:38;;;;;;;3.10;1.60;;;;;;;19.05;50.67;99439.69;5054804;28;42752;-78
2022/05/14 07:02:06;;;;;;;2.87;1.70;;;;;;;19.34;49.97;99445.16;5072322;28;42237;-78
2022/05/14 07:07:20;;;;;;;3.83;1.70;;;;;;;19.99;49.23;99446.44;5055164;28;43228;-78
2022/05/14 07:09:49;;;;;;;3.50;1.80;;;;;;;20.08;48.66;99448.28;5055037;28;42843;-78
2022/05/14 07:12:18;;;;;;;2.40;2.00;;;;;;;20.24;48.11;99455.78;5054388;28;41180;-78
2022/05/14 07:14:46;;;;;;;3.63;1.90;;;;;;;20.70;46.94;99449.66;5071828;28;38946;-78
2022/05/14 07:17:13;;;;;;;5.27;1.67;;;;;;;21.22;45.25;99455.47;5055032;28;40736;-77
2022/05/14 07:19:41;;;;;;;1.30;1.20;;;;;;;21.30;45.66;99463.63;5071563;28;42788;-78
2022/05/14 07:22:13;;;;;;;2.13;1.40;;;;;;;21.35;45.90;99453.25;5071987;28;42126;-78
2022/05/14 07:24:43;;;;;;;2.97;1.50;;;;;;;21.80;45.25;99462.19;5071427;28;39528;-79
2022/05/14 07:27:11;;;;;;;1.40;1.30;;;;;;;22.60;43.70;99465.00;5054765;28;42830;-79
2022/05/14 07:29:41;;;;;;;2.20;1.80;;;;;;;23.13;43.54;99468.38;5071524;28;42744;-79
2022/05/14 07:32:10;;;;;;;2.43;1.53;;;;;;;23.37;42.99;99464.94;5054739;28;41034;-79
2022/05/14 07:34:38;;;;;;;2.33;1.43;;;;;;;23.27;41.71;99458.81;5072757;28;40972;-79
2022/05/14 07:37:08;;;;;;;2.30;1.33;;;;;;;23.49;41.57;99479.88;5051398;28;43104;-79
2022/05/14 07:39:40;;;;;;;2.87;1.53;;;;;;;23.45;40.84;99474.97;5068261;28;42784;-79
2022/05/14 07:42:14;;;;;;;5.67;1.93;;;;;;;23.39;42.10;99468.34;5065517;28;41720;-79
2022/05/14 07:44:45;;;;;;;2.37;1.30;;;;;;;23.77;41.79;99477.81;5076312;28;38975;-79
2022/05/14 07:47:14;;;;;;;2.07;1.50;;;;;;;24.45;40.31;99482.19;5075758;28;43553;-79
2022/05/14 07:49:43;;;;;;;3.77;1.30;;;;;;;24.85;39.76;99459.63;5094504;28;42721;-79
2022/05/14 07:52:11;;;;;;;3.27;1.50;;;;;;;25.30;40.53;99467.16;5085772;28;41471;-79
2022/05/14 07:54:39;;;;;;;1.87;1.20;;;;;;;25.30;39.85;99451.72;5071548;28;41136;-75
2022/05/14 07:57:07;;;;;;;2.37;1.20;;;;;;;25.45;39.51;99470.00;5090837;28;42317;-78
2022/05/14 07:59:38;;;;;;;1.27;1.17;;;;;;;25.59;38.84;99472.78;5072910;28;43633;-78
2022/05/14 08:02:09;;;;;;;1.50;1.40;;;;;;;25.86;38.18;99486.91;5070305;28;43221;-78
2022/05/14 08:04:41;;;;;;;2.53;1.23;;;;;;;26.69;37.28;99487.91;5054801;28;39270;-78
2022/05/14 08:07:08;;;;;;;4.73;1.17;;;;;;;27.32;35.89;99492.03;5040469;28;40754;-79
2022/05/14 08:09:36;;;;;;;3.33;1.20;;;;;;;27.39;35.44;99500.28;5033514;28;42082;-78
2022/05/14 08:12:04;;;;;;;2.37;1.57;;;;;;;27.16;35.94;99495.78;5050858;28;41311;-75
2022/05/14 08:14:33;;;;;;;1.33;0.90;;;;;;;27.25;35.78;99488.34;5053178;28;38984;-78
2022/05/14 08:17:02;;;;;;;2.03;1.30;;;;;;;27.49;33.97;99509.84;5070429;28;40781;-76
2022/05/14 08:19:30;;;;;;;2.17;1.23;;;;;;;27.93;35.14;99508.13;5071006;28;43755;-78
2022/05/14 08:24:43;;;;;;;2.27;1.00;;;;;;;28.74;32.92;99510.47;5070399;28;40142;-78
2022/05/14 08:27:11;;;;;;;3.07;1.10;;;;;;;29.24;32.63;99508.56;5067535;28;41788;-79
2022/05/14 08:29:40;;;;;;;2.00;1.10;;;;;;;29.60;32.40;99509.22;5036777;28;43191;-79
2022/05/14 08:32:09;;;;;;;2.03;1.00;;;;;;;30.16;32.26;99498.16;5071377;28;44482;-78
2022/05/14 08:34:37;;;;;;;1.83;1.40;;;;;;;31.12;31.18;99509.63;5069806;28;39019;-78
2022/05/14 08:37:05;;;;;;;3.17;1.20;;;;;;;32.35;28.50;99536.00;5071817;28;41748;-78
2022/05/14 08:39:32;;;;;;;2.33;1.17;;;;;;;33.46;27.16;99529.88;5069911;28;42793;-79
2022/05/14 08:42:01;;;;;;;3.37;1.20;;;;;;;34.79;25.48;99536.19;5087138;28;41100;-77
2022/05/14 08:44:32;;;;;;;1.47;1.00;;;;;;;36.17;24.25;99542.97;5069019;28;38843;-79
2022/05/14 08:47:03;;;;;;;2.50;1.17;;;;;;;36.63;23.04;99547.47;5070610;28;42062;-78
2022/05/14 08:49:36;;;;;;;1.63;1.40;;;;;;;36.25;23.08;99543.44;5069212;28;41568;-80
2022/05/14 08:52:08;;;;;;;1.60;1.50;;;;;;;35.47;23.05;99534.84;5053745;28;41874;-80
2022/05/14 08:54:35;;;;;;;3.27;1.00;;;;;;;35.11;21.83;99545.00;5069505;28;39944;-79
2022/05/14 08:57:11;;;;;;;1.67;1.03;;;;;;;34.64;22.54;99532.19;5069951;28;40938;-76
2022/05/14 08:59:51;;;;;;;1.67;1.40;;;;;;;33.84;23.23;99538.75;5069020;28;41717;-84
2022/05/14 09:02:21;;;;;;;2.10;1.10;;;;;;;32.75;24.00;99533.03;5053365;28;41253;-78
2022/05/14 09:04:56;;;;;;;2.87;1.27;;;;;;;32.46;26.38;99507.03;5071553;28;41334;-79
2022/05/14 09:07:24;;;;;;;2.00;1.13;;;;;;;32.47;25.87;99503.22;5073808;28;43240;-75
2022/05/14 09:09:54;;;;;;;1.17;0.90;;;;;;;32.47;24.92;99523.28;5073153;28;41413;-80
2022/05/14 09:12:29;;;;;;;3.50;1.33;;;;;;;32.40;25.53;99513.38;5073874;28;41152;-78
2022/05/14 09:15:00;;;;;;;1.87;0.90;;;;;;;31.97;26.06;99507.72;5071217;28;40104;-81
2022/05/14 09:17:31;;;;;;;2.30;1.40;;;;;;;31.51;27.79;99497.75;5071474;28;42046;-78
2022/05/14 09:20:01;;;;;;;2.70;1.10;;;;;;;31.46;26.83;99505.75;5069703;28;42757;-78
2022/05/14 09:22:33;;;;;;;2.40;1.20;;;;;;;31.53;27.11;99501.09;5072640;28;43152;-80
2022/05/14 09:25:07;;;;;;;2.83;1.20;;;;;;;31.32;26.46;99494.00;5055648;28;39554;-78
2022/05/14 09:27:42;;;;;;;1.87;1.00;;;;;;;30.99;28.18;99474.88;5070530;28;41880;-77
2022/05/14 09:30:14;;;;;;;2.33;1.00;;;;;;;30.92;28.00;99471.28;5055689;28;41554;-77
2022/05/14 09:32:44;;;;;;;2.00;1.10;;;;;;;31.40;27.20;99491.00;5070133;28;42326;-78
2022/05/14 09:35:17;;;;;;;3.10;1.27;;;;;;;32.39;26.65;99492.53;5056266;28;40037;-79
2022/05/14 09:37:45;;;;;;;2.10;0.90;;;;;;;32.96;26.20;99485.97;5070203;28;42537;-81
2022/05/14 09:40:20;;;;;;;2.73;1.30;;;;;;;32.97;26.07;99490.41;5072537;28;41792;-81
2022/05/14 09:42:51;;;;;;;1.30;0.93;;;;;;;32.68;24.97;99497.38;5071560;28;43166;-81
2022/05/14 09:45:24;;;;;;;1.57;1.00;;;;;;;32.44;26.38;99496.28;5072761;28;39889;-81
2022/05/14 09:47:52;;;;;;;1.57;1.00;;;;;;;32.22;26.76;99494.13;5055915;28;40799;-79
2022/05/14 09:50:29;;;;;;;2.50;1.30;;;;;;;32.50;25.90;99493.72;5056041;28;43203;-81
2022/05/14 09:53:00;;;;;;;4.27;1.70;;;;;;;32.77;25.31;99497.94;5072974;28;41970;-79
2022/05/14 09:55:55;;;;;;;1.67;1.47;;;;;;;32.91;25.24;99494.03;5069790;28;40962;-81
2022/05/14 09:58:32;;;;;;;1.20;1.07;;;;;;;33.13;25.82;99492.59;5060401;28;42747;-81
2022/05/14 10:01:08;;;;;;;2.83;1.37;;;;;;;32.99;25.05;99462.75;5070753;28;42711;-79
2022/05/14 10:03:44;;;;;;;2.47;1.40;;;;;;;33.25;25.46;99478.97;5052405;28;41402;-78
2022/05/14 10:06:24;;;;;;;1.57;1.23;;;;;;;34.32;24.24;99490.34;5049665;28;39937;-82
2022/05/14 10:09:03;;;;;;;2.27;1.10;;;;;;;35.95;22.08;99512.50;5035286;28;41805;-82
2022/05/14 10:11:34;;;;;;;1.30;1.10;;;;;;;37.52;21.30;99522.72;5037240;28;42393;-79
2022/05/14 10:14:15;;;;;;;1.92;1.45;;;;;;;38.72;20.07;99518.94;5051578;28;42956;-78
2022/05/14 10:16:55;;;;;;;1.98;1.00;;;;;;;39.50;18.37;99512.66;5052286;28;39891;-77
2022/05/14 10:19:48;;;;;;;2.33;1.00;;;;;;;39.80;18.16;99517.53;5068916;28;43045;-79
2022/05/14 10:22:27;;;;;;;2.45;0.90;;;;;;;39.73;18.74;99505.00;5053560;28;42771;-78
2022/05/14 10:28:15;;;;;;;1.83;0.90;;;;;;;39.41;18.81;99503.19;4975932;28;39086;-78
2022/05/14 10:30:55;;;;;;;1.92;0.90;;;;;;;38.86;20.65;99478.63;5039362;28;41772;-77
2022/05/14 10:33:26;;;;;;;3.70;1.15;;;;;;;38.55;19.14;99499.69;5051957;28;42831;-78
2022/05/14 10:35:59;;;;;;;1.70;1.13;;;;;;;39.27;19.08;99487.25;5086510;28;42846;-77
2022/05/14 10:38:32;;;;;;;1.65;0.90;;;;;;;40.41;19.01;99495.56;5051740;28;40045;-77
2022/05/14 10:41:05;;;;;;;2.40;1.40;;;;;;;40.37;16.23;99515.81;5067008;28;41563;-77
2022/05/14 10:43:42;;;;;;;1.58;1.08;;;;;;;39.26;17.96;99505.81;5071077;28;43315;-79
2022/05/14 10:46:12;;;;;;;1.58;1.02;;;;;;;38.41;19.27;99487.34;5069540;28;42067;-78
2022/05/14 10:48:56;;;;;;;1.75;1.08;;;;;;;37.96;20.78;99473.81;5072259;28;40011;-77
2022/05/14 10:51:26;;;;;;;3.85;1.08;;;;;;;38.44;20.21;99470.22;5069255;28;41842;-77
2022/05/14 10:53:56;;;;;;;3.28;1.27;;;;;;;38.54;18.60;99498.03;5071526;28;44027;-78
2022/05/14 10:56:27;;;;;;;0.93;0.90;;;;;;;38.26;20.41;99474.19;5072283;28;41117;-78
2022/05/14 10:59:01;;;;;;;2.40;1.30;;;;;;;37.77;19.25;99480.78;5071246;28;39886;-78
2022/05/14 11:01:42;;;;;;;1.98;0.93;;;;;;;36.73;19.30;99441.94;5055386;28;42962;-78
2022/05/14 11:04:20;;;;;;;1.77;0.87;;;;;;;36.21;21.53;99466.94;5071971;28;41969;-78
2022/05/14 11:06:53;;;;;;;1.57;1.00;;;;;;;35.92;22.77;99447.63;5070512;28;43262;-78
2022/05/14 11:09:35;;;;;;;2.40;0.97;;;;;;;36.02;21.25;99458.03;5072802;28;41250;-79
2022/05/14 11:12:07;;;;;;;0.97;0.90;;;;;;;36.24;20.80;99459.00;5069447;28;42505;-77
2022/05/14 11:14:40;;;;;;;3.42;0.90;;;;;;;36.45;20.23;99463.00;5073045;28;43745;-77
2022/05/14 11:17:21;;;;;;;1.27;0.90;;;;;;;36.63;21.09;99454.47;5070435;28;42458;-78
2022/05/14 11:19:50;;;;;;;3.38;1.45;;;;;;;36.35;20.94;99438.00;5073259;28;40768;-78
2022/05/14 11:22:26;;;;;;;1.13;1.03;;;;;;;36.14;21.73;99449.69;5047884;28;41014;-80
2022/05/14 11:24:55;;;;;;;1.60;1.17;;;;;;;35.59;21.30;99439.22;5049778;28;42423;-81
2022/05/14 11:27:33;;;;;;;2.43;1.20;;;;;;;35.50;21.38;99443.41;5035386;28;41251;-76
2022/05/14 11:30:04;;;;;;;1.43;0.90;;;;;;;35.55;21.25;99440.78;5039670;28;40218;-77
2022/05/14 11:32:43;;;;;;;1.60;1.23;;;;;;;35.92;21.99;99431.09;5095150;28;42596;-75
2022/05/14 11:35:12;;;;;;;2.57;1.20;;;;;;;36.02;20.78;99418.56;5060573;28;43026;-78
2022/05/14 11:37:43;;;;;;;0.90;0.90;;;;;;;36.21;22.05;99417.28;5078103;28;42438;-76
2022/05/14 11:40:29;;;;;;;3.13;1.47;;;;;;;36.70;22.37;99415.69;5074761;28;40019;-78
2022/05/14 11:43:10;;;;;;;0.90;0.90;;;;;;;37.39;19.25;99447.38;5055685;28;42886;-76
2022/05/14 11:45:41;;;;;;;3.73;1.50;;;;;;;38.20;19.84;99438.44;5039835;28;42994;-77
2022/05/14 11:48:16;;;;;;;2.60;1.00;;;;;;;39.20;19.93;99440.38;5034004;28;43563;-77
2022/05/14 11:50:54;;;;;;;3.43;0.90;;;;;;;40.22;19.77;99434.13;5050286;28;40275;-76
2022/05/14 11:53:29;;;;;;;1.40;1.10;;;;;;;41.03;18.82;99440.84;5050770;28;41447;-78
2022/05/14 11:56:02;;;;;;;1.10;1.00;;;;;;;41.73;17.18;99455.69;5051158;28;42832;-79
2022/05/14 11:58:38;;;;;;;2.47;1.30;;;;;;;42.40;17.31;99443.94;5051017;28;41556;-78
2022/05/14 12:01:08;;;;;;;1.03;0.90;;;;;;;43.44;16.45;99449.91;5050339;28;40571;-78
2022/05/14 12:03:40;;;;;;;1.30;0.98;;;;;;;43.41;16.43;99447.72;5084749;28;42167;-78
2022/05/14 12:06:42;;;;;;;1.90;1.15;;;;;;;44.09;15.15;99446.59;5049128;28;43596;-78
2022/05/14 12:09:27;;;;;;;1.80;1.40;;;;;;;45.04;14.29;99466.56;5027324;28;42300;-79
2022/05/14 12:12:05;;;;;;;1.63;1.00;;;;;;;45.74;14.45;99455.16;5067689;28;38834;-77